Time;durP1;ratioP1;P1;durP2;ratioP2;P2;SDS_P1;SDS_P2;PMS_P1;PMS_P2;Temp;Humidity;BMP_temperature;BMP_pressure;BME280_temperature;BME280_humidity;BME280_pressure;Samples;Min_cycle;Max_cycle;Signal;HPM_P1;HPM_P2
2024/01/16 00:00:31;;;;;;;4.68;2.33;;;;;;;-13.99;100.00;99958.16;5093762;28;20051;-68
2024/01/16 00:02:56;;;;;;;7.40;2.83;;;;;;;-13.98;100.00;99959.84;5108717;28;20028;-68
2024/01/16 00:05:21;;;;;;;6.22;2.65;;;;;;;-13.95;100.00;99964.03;5093915;28;20028;-68
2024/01/16 00:07:47;;;;;;;8.45;2.78;;;;;;;-13.99;100.00;99958.16;5109430;28;20032;-68
2024/01/16 00:10:12;;;;;;;5.43;2.30;;;;;;;-14.04;100.00;99962.69;5092365;28;20157;-68
2024/01/16 00:12:40;;;;;;;3.53;1.40;;;;;;;-14.03;100.00;99967.81;5108939;28;20111;-68
2024/01/16 00:15:06;;;;;;;2.58;1.10;;;;;;;-14.07;100.00;99976.59;5093239;28;20035;-68
2024/01/16 00:17:31;;;;;;;1.75;0.90;;;;;;;-14.27;100.00;99958.47;5092345;28;20402;-68
2024/01/16 00:20:00;;;;;;;2.10;0.80;;;;;;;-14.29;100.00;99981.78;5092223;28;20024;-68
2024/01/16 00:22:26;;;;;;;1.35;0.70;;;;;;;-14.31;100.00;99986.19;5075480;28;20036;-68
2024/01/16 00:24:51;;;;;;;3.22;1.13;;;;;;;-14.33;100.00;99989.75;5092769;28;20042;-68
2024/01/16 00:27:17;;;;;;;3.15;0.93;;;;;;;-14.34;100.00;99994.06;5093081;28;20406;-68
2024/01/16 00:29:42;;;;;;;2.95;0.90;;;;;;;-14.29;100.00;99992.13;5092012;28;20032;-67
2024/01/16 00:32:08;;;;;;;2.20;0.90;;;;;;;-14.34;100.00;100006.97;5108748;28;20030;-68
2024/01/16 00:34:33;;;;;;;4.13;1.17;;;;;;;-14.39;100.00;100011.50;5073865;28;20080;-67
2024/01/16 00:37:00;;;;;;;3.20;1.33;;;;;;;-14.38;100.00;100013.16;5091302;28;20032;-68
2024/01/16 00:39:25;;;;;;;4.88;1.30;;;;;;;-14.41;100.00;100008.13;5108741;28;20069;-68
2024/01/16 00:41:51;;;;;;;6.50;1.60;;;;;;;-14.45;100.00;100002.25;5093238;28;20081;-68
2024/01/16 00:44:16;;;;;;;5.55;1.13;;;;;;;-14.61;100.00;99974.53;5093214;28;20034;-68
2024/01/16 00:46:42;;;;;;;2.33;1.00;;;;;;;-14.54;100.00;99992.28;5108447;28;20024;-68
2024/01/16 00:49:07;;;;;;;2.83;1.02;;;;;;;-14.50;100.00;100011.94;5092180;28;20495;-68
2024/01/16 00:51:33;;;;;;;2.38;0.90;;;;;;;-14.52;100.00;100013.75;5091890;28;20039;-68
2024/01/16 00:53:58;;;;;;;2.60;1.10;;;;;;;-14.53;100.00;100021.56;5092992;28;20046;-68
2024/01/16 00:56:26;;;;;;;3.97;0.80;;;;;;;-14.53;100.00;100016.41;5091755;28;20052;-68
2024/01/16 00:58:53;;;;;;;1.85;0.95;;;;;;;-14.56;100.00;100024.28;5093115;28;20042;-67
2024/01/16 01:01:19;;;;;;;2.08;1.10;;;;;;;-14.59;100.00;100021.81;5091965;28;20051;-68
2024/01/16 01:03:45;;;;;;;2.88;1.10;;;;;;;-14.68;100.00;100016.09;5074558;28;20063;-67
2024/01/16 01:06:11;;;;;;;3.05;1.10;;;;;;;-14.66;100.00;100034.13;5092283;28;20032;-68
2024/01/16 01:08:36;;;;;;;4.70;1.48;;;;;;;-14.69;100.00;100029.91;5092766;28;20403;-68
2024/01/16 01:11:02;;;;;;;2.03;1.10;;;;;;;-14.66;100.00;100039.28;5091861;28;20038;-68
2024/01/16 01:13:28;;;;;;;2.60;1.17;;;;;;;-14.65;100.00;100040.13;5074893;28;20046;-67
2024/01/16 01:15:53;;;;;;;3.22;1.20;;;;;;;-14.70;100.00;100040.28;5108326;28;20492;-68
2024/01/16 01:18:19;;;;;;;3.33;1.10;;;;;;;-14.69;100.00;100047.16;5091474;28;20594;-68
2024/01/16 01:20:44;;;;;;;2.92;1.25;;;;;;;-14.70;100.00;100043.72;5092389;28;20035;-68
2024/01/16 01:23:09;;;;;;;2.85;1.10;;;;;;;-14.68;100.00;100041.06;5091085;28;20035;-68
2024/01/16 01:25:35;;;;;;;2.83;1.25;;;;;;;-14.70;100.00;100048.03;5092357;28;20680;-68
2024/01/16 01:28:00;;;;;;;3.00;1.20;;;;;;;-14.70;100.00;100048.91;5090723;28;20035;-68
2024/01/16 01:30:25;;;;;;;3.22;1.13;;;;;;;-14.71;100.00;100039.44;5091921;28;20028;-68
2024/01/16 01:32:51;;;;;;;2.60;1.10;;;;;;;-14.75;100.00;100044.78;5074201;28;20032;-68
2024/01/16 01:35:19;;;;;;;5.63;1.17;;;;;;;-14.80;100.00;100042.41;5092809;28;20136;-68
2024/01/16 01:37:45;;;;;;;2.88;1.10;;;;;;;-14.80;100.00;100041.53;5092198;28;20057;-69
2024/01/16 01:40:12;;;;;;;3.08;1.30;;;;;;;-14.79;100.00;100048.41;5092526;28;20035;-68
2024/01/16 01:42:38;;;;;;;2.47;0.90;;;;;;;-14.82;100.00;100044.19;5108178;28;20035;-68
2024/01/16 01:45:03;;;;;;;2.13;1.02;;;;;;;-14.86;100.00;100049.50;5090339;28;20080;-68
2024/01/16 01:47:30;;;;;;;2.30;0.80;;;;;;;-14.90;100.00;100046.19;5106774;28;20477;-68
2024/01/16 01:49:56;;;;;;;1.50;0.73;;;;;;;-14.94;100.00;100045.47;5091823;28;20028;-68
2024/01/16 01:52:21;;;;;;;4.72;0.80;;;;;;;-15.16;100.00;100018.81;5107035;28;20028;-68
2024/01/16 01:54:47;;;;;;;2.25;0.98;;;;;;;-15.01;100.00;100058.66;5091099;28;20032;-67
2024/01/16 01:57:13;;;;;;;2.45;1.05;;;;;;;-15.04;100.00;100061.38;5108636;28;20032;-68
2024/01/16 01:59:38;;;;;;;2.00;0.80;;;;;;;-15.10;100.00;100059.00;5077927;28;20035;-68
2024/01/16 02:02:04;;;;;;;2.38;0.93;;;;;;;-15.07;100.00;100074.38;5095087;28;20503;-68
2024/01/16 02:04:31;;;;;;;2.22;0.70;;;;;;;-15.07;100.00;100069.22;5095808;28;20022;-67
2024/01/16 02:06:58;;;;;;;2.17;0.93;;;;;;;-15.05;100.00;100070.00;5077963;28;20111;-68
2024/01/16 02:09:23;;;;;;;3.92;1.08;;;;;;;-15.06;100.00;100070.88;5094636;28;20278;-69
2024/01/16 02:11:48;;;;;;;4.65;1.30;;;;;;;-15.08;100.00;100068.38;5095529;28;20020;-68
2024/01/16 02:14:14;;;;;;;2.63;0.98;;;;;;;-15.16;100.00;100060.94;5094719;28;20071;-68
2024/01/16 02:16:41;;;;;;;1.42;0.80;;;;;;;-15.13;100.00;100070.28;5093605;28;20024;-68
2024/01/16 02:19:07;;;;;;;2.70;0.77;;;;;;;-15.12;100.00;100076.28;5094860;28;20036;-68
2024/01/16 02:21:57;;;;;;;1.67;1.00;;;;;;;-15.10;100.00;100079.66;5093789;28;20024;-68
2024/01/16 02:24:23;;;;;;;1.52;0.77;;;;;;;-15.14;100.00;100078.91;5095398;28;20047;-69
2024/01/16 02:26:48;;;;;;;3.30;0.85;;;;;;;-15.16;100.00;100081.56;5093628;28;20473;-67
2024/01/16 02:29:13;;;;;;;3.40;0.73;;;;;;;-15.18;100.00;100079.94;5093960;28;20592;-68
2024/01/16 02:31:39;;;;;;;1.40;0.80;;;;;;;-15.18;100.00;100085.94;5095356;28;20023;-68
2024/01/16 02:34:04;;;;;;;2.33;1.00;;;;;;;-15.20;100.00;100086.88;5093751;28;20052;-68
2024/01/16 02:36:30;;;;;;;2.45;1.00;;;;;;;-15.22;100.00;100092.09;5093337;28;20514;-68
2024/01/16 02:38:55;;;;;;;2.17;1.10;;;;;;;-15.27;100.00;100099.16;5095463;28;20038;-68
2024/01/16 02:41:21;;;;;;;2.13;0.90;;;;;;;-15.32;100.00;100102.81;5094931;28;20494;-69
2024/01/16 02:43:47;;;;;;;0.85;0.52;;;;;;;-15.52;100.00;100067.38;5094363;28;20470;-68
2024/01/16 02:46:13;;;;;;;3.22;0.80;;;;;;;-15.38;100.00;100085.78;5095142;28;20031;-68
2024/01/16 02:48:38;;;;;;;1.48;0.60;;;;;;;-15.51;100.00;100071.63;5095616;28;20032;-68
2024/01/16 02:51:04;;;;;;;1.00;0.60;;;;;;;-15.34;100.00;100105.41;5095181;28;20497;-67
2024/01/16 02:53:30;;;;;;;3.67;0.80;;;;;;;-15.37;100.00;100102.94;5094605;28;20677;-68
2024/01/16 02:55:58;;;;;;;1.83;0.93;;;;;;;-15.42;100.00;100089.38;5094057;28;20107;-68
2024/01/16 02:58:24;;;;;;;1.15;0.52;;;;;;;-15.30;100.00;100107.00;5093849;28;20016;-67
2024/01/16 03:00:49;;;;;;;4.25;0.75;;;;;;;-15.22;100.00;100111.91;5092773;28;20035;-68
2024/01/16 03:03:15;;;;;;;1.80;0.70;;;;;;;-15.17;100.00;100112.56;5092253;28;20044;-68
2024/01/16 03:05:44;;;;;;;1.20;0.55;;;;;;;-15.12;100.00;100115.00;5094918;28;20424;-68
2024/01/16 03:08:10;;;;;;;1.67;0.50;;;;;;;-15.07;100.00;100110.50;5075649;28;20119;-68
2024/01/16 03:10:36;;;;;;;0.77;0.52;;;;;;;-15.06;100.00;100115.63;5094091;28;20104;-68
2024/01/16 03:13:02;;;;;;;3.55;0.63;;;;;;;-15.07;100.00;100116.50;5094584;28;20132;-68
2024/01/16 03:15:28;;;;;;;1.17;0.60;;;;;;;-15.06;100.00;100122.50;5094303;28;20077;-67
2024/01/16 03:17:53;;;;;;;1.30;0.70;;;;;;;-15.09;100.00;100108.00;5093529;28;20032;-67
2024/01/16 03:20:18;;;;;;;2.10;0.80;;;;;;;-15.19;100.00;100122.97;5093703;28;20089;-68
2024/01/16 03:22:44;;;;;;;2.78;0.70;;;;;;;-15.23;100.00;100126.53;5093230;28;20035;-67
2024/01/16 03:25:13;;;;;;;1.60;0.75;;;;;;;-15.23;100.00;100123.09;5092040;28;20059;-69
2024/01/16 03:27:38;;;;;;;1.85;0.85;;;;;;;-15.26;100.00;100136.09;5109169;28;20399;-67
2024/01/16 03:30:04;;;;;;;2.38;1.13;;;;;;;-15.48;100.00;100097.31;5093506;28;20053;-67
2024/01/16 03:32:30;;;;;;;3.58;0.90;;;;;;;-15.33;100.00;100132.88;5091499;28;20020;-67
2024/01/16 03:34:55;;;;;;;1.27;0.60;;;;;;;-15.24;100.00;100140.31;5093840;28;20559;-67
2024/01/16 03:37:21;;;;;;;2.80;1.17;;;;;;;-15.20;100.00;100141.88;5093041;28;20589;-68
2024/01/16 03:39:46;;;;;;;3.72;1.08;;;;;;;-15.24;100.00;100142.91;5075772;28;20595;-68
2024/01/16 03:42:12;;;;;;;3.85;0.85;;;;;;;-15.23;100.00;100142.03;5093735;28;20021;-68
2024/01/16 03:44:40;;;;;;;3.15;0.82;;;;;;;-15.23;100.00;100136.00;5092195;28;20428;-68
2024/01/16 03:47:05;;;;;;;2.65;1.00;;;;;;;-15.27;100.00;100139.59;5092387;28;20070;-67
2024/01/16 03:49:31;;;;;;;5.07;1.08;;;;;;;-15.36;100.00;100143.34;5093570;28;20020;-68
2024/01/16 03:51:56;;;;;;;1.95;1.00;;;;;;;-15.40;100.00;100141.75;5092459;28;20162;-68
2024/01/16 03:54:21;;;;;;;2.47;1.20;;;;;;;-15.32;100.00;100138.91;5093987;28;20024;-70
2024/01/16 03:56:47;;;;;;;3.45;1.27;;;;;;;-15.45;100.00;100102.38;5092815;28;20572;-68
2024/01/16 03:59:13;;;;;;;4.32;1.35;;;;;;;-15.35;100.00;100126.13;5075175;28;20024;-68
2024/01/16 04:01:38;;;;;;;4.22;1.70;;;;;;;-15.42;100.00;100126.31;5074029;28;20588;-68
2024/01/16 04:04:07;;;;;;;4.85;2.10;;;;;;;-15.86;100.00;100099.47;5092210;28;20043;-68
2024/01/16 04:06:32;;;;;;;5.15;2.60;;;;;;;-15.74;100.00;100130.00;5093065;28;20462;-68
2024/01/16 04:08:58;;;;;;;4.88;2.63;;;;;;;-15.85;100.00;100134.69;5109223;28;20032;-68
2024/01/16 04:11:23;;;;;;;6.65;2.60;;;;;;;-15.94;100.00;100122.06;5108420;28;20020;-68
2024/01/16 04:13:49;;;;;;;6.13;2.53;;;;;;;-15.86;100.00;100140.69;5074791;28;20513;-70
2024/01/16 04:16:15;;;;;;;5.25;2.35;;;;;;;-15.86;100.00;100135.53;5092919;28;20024;-69
2024/01/16 04:18:43;;;;;;;5.03;2.22;;;;;;;-15.91;100.00;100129.72;5092424;28;20108;-69
2024/01/16 04:21:09;;;;;;;5.80;2.42;;;;;;;-15.97;100.00;100133.31;5092852;28;20073;-68
2024/01/16 04:23:34;;;;;;;6.30;2.40;;;;;;;-15.99;100.00;100142.84;5108440;28;20032;-68
2024/01/16 04:26:00;;;;;;;6.55;2.10;;;;;;;-16.04;100.00;100134.41;5092161;28;20066;-67
2024/01/16 04:28:25;;;;;;;5.63;1.60;;;;;;;-16.00;100.00;100138.56;5108963;28;20379;-67
2024/01/16 04:30:51;;;;;;;4.40;2.40;;;;;;;-15.98;100.00;100147.09;5093769;28;20677;-67
2024/01/16 04:33:16;;;;;;;4.18;2.05;;;;;;;-16.18;100.00;100119.38;5091182;28;20031;-67
2024/01/16 04:35:42;;;;;;;8.45;2.20;;;;;;;-15.99;100.00;100150.59;5092546;28;20110;-68
2024/01/16 04:38:07;;;;;;;4.90;2.45;;;;;;;-15.99;100.00;100149.72;5092381;28;20386;-68
2024/01/16 04:40:33;;;;;;;9.90;3.03;;;;;;;-16.13;100.00;100139.84;5092994;28;20141;-68
2024/01/16 04:42:59;;;;;;;7.07;3.30;;;;;;;-16.07;100.00;100157.69;5092524;28;20028;-67
2024/01/16 04:45:24;;;;;;;5.75;2.70;;;;;;;-16.67;100.00;100068.53;5092845;28;20043;-68
2024/01/16 04:47:49;;;;;;;5.55;2.85;;;;;;;-16.15;100.00;100155.38;5091837;28;20130;-67
2024/01/16 04:50:15;;;;;;;6.28;2.47;;;;;;;-16.27;100.00;100150.56;5092621;28;20038;-67
2024/01/16 04:52:40;;;;;;;4.20;2.05;;;;;;;-16.25;100.00;100153.97;5092309;28;20032;-67
2024/01/16 04:55:07;;;;;;;5.07;2.80;;;;;;;-16.21;100.00;100158.13;5091775;28;20034;-67
2024/01/16 04:57:34;;;;;;;5.38;2.70;;;;;;;-16.25;100.00;100148.81;5092637;28;20240;-68
2024/01/16 04:59:59;;;;;;;5.13;1.90;;;;;;;-16.21;100.00;100155.53;5093106;28;20036;-67
2024/01/16 05:02:24;;;;;;;5.60;2.20;;;;;;;-16.18;100.00;100154.63;5092359;28;20380;-68
2024/01/16 05:04:51;;;;;;;5.25;2.60;;;;;;;-16.22;100.00;100153.88;5108672;28;20440;-68
2024/01/16 05:07:20;;;;;;;6.35;2.85;;;;;;;-16.28;100.00;100158.38;5092807;28;20043;-67
2024/01/16 05:09:46;;;;;;;3.03;1.92;;;;;;;-16.32;100.00;100155.03;5093861;28;20024;-67
2024/01/16 05:12:12;;;;;;;4.13;2.03;;;;;;;-16.31;100.00;100148.16;5090671;28;20466;-67
2024/01/16 05:14:37;;;;;;;5.72;2.17;;;;;;;-16.29;100.00;100152.34;5107565;28;20028;-66
2024/01/16 05:17:04;;;;;;;8.82;2.60;;;;;;;-16.28;100.00;100148.06;5090269;28;20035;-67
2024/01/16 05:19:29;;;;;;;4.97;2.50;;;;;;;-16.30;100.00;100144.69;5090833;28;20024;-68
2024/01/16 05:21:55;;;;;;;5.65;2.63;;;;;;;-16.30;100.00;100155.81;5090151;28;20038;-68
2024/01/16 05:24:20;;;;;;;4.50;2.42;;;;;;;-16.34;100.00;100149.06;5091767;28;20024;-68
2024/01/16 05:26:46;;;;;;;4.85;2.53;;;;;;;-16.36;100.00;100154.25;5107070;28;20032;-68
2024/01/16 05:29:11;;;;;;;5.40;2.20;;;;;;;-16.42;100.00;100143.28;5090413;28;20020;-67
2024/01/16 05:31:43;;;;;;;8.05;2.88;;;;;;;-16.46;100.00;100144.28;5107231;28;20035;-68
2024/01/16 05:34:09;;;;;;;5.13;2.53;;;;;;;-16.51;100.00;100141.03;5094344;28;20420;-68
2024/01/16 05:36:35;;;;;;;4.07;2.10;;;;;;;-16.55;100.00;100144.56;5111504;28;20081;-68
2024/01/16 05:39:02;;;;;;;4.35;2.17;;;;;;;-16.63;100.00;100137.91;5096086;28;20024;-68
2024/01/16 05:41:27;;;;;;;5.72;2.22;;;;;;;-16.69;100.00;100134.66;5094332;28;20020;-68
2024/01/16 05:43:52;;;;;;;6.03;2.10;;;;;;;-16.72;100.00;100133.00;5111223;28;20027;-68
2024/01/16 05:46:18;;;;;;;3.97;2.38;;;;;;;-16.73;100.00;100136.47;5110701;28;20066;-69
2024/01/16 05:48:44;;;;;;;10.13;3.53;;;;;;;-17.03;100.00;100098.78;5098449;28;20028;-69
2024/01/16 05:51:09;;;;;;;15.02;6.72;;;;;;;-16.77;100.00;100136.66;5111783;28;20031;-68
2024/01/16 05:53:35;;;;;;;8.88;4.55;;;;;;;-17.12;100.00;100090.44;5083333;28;20039;-68
2024/01/16 05:56:00;;;;;;;12.43;5.93;;;;;;;-16.84;100.00;100143.72;5074765;28;20036;-69
2024/01/16 05:58:25;;;;;;;11.02;4.95;;;;;;;-16.82;100.00;100144.50;5072323;28;20389;-67
2024/01/16 06:00:51;;;;;;;7.18;3.60;;;;;;;-16.76;100.00;100148.63;5090628;28;20038;-68
2024/01/16 06:03:17;;;;;;;10.75;3.75;;;;;;;-16.73;100.00;100144.19;5073070;28;20029;-68
2024/01/16 06:05:42;;;;;;;9.02;3.88;;;;;;;-16.76;100.00;100144.31;5073166;28;20020;-69
2024/01/16 06:08:08;;;;;;;10.55;4.75;;;;;;;-16.71;100.00;100142.44;5057142;28;20402;-70
2024/01/16 06:10:33;;;;;;;12.43;5.18;;;;;;;-16.71;100.00;100139.88;5074870;28;20063;-67
2024/01/16 06:12:58;;;;;;;9.43;4.45;;;;;;;-16.64;100.00;100138.78;5075219;28;20107;-68
2024/01/16 06:15:27;;;;;;;13.80;5.30;;;;;;;-16.58;100.00;100148.91;5072245;28;20036;-67
2024/01/16 06:17:52;;;;;;;18.92;5.80;;;;;;;-16.53;100.00;100153.91;5073938;28;20047;-68
2024/01/16 06:20:17;;;;;;;27.95;11.95;;;;;;;-16.48;100.00;100151.22;5072096;28;20032;-68
2024/01/16 06:22:43;;;;;;;15.35;6.05;;;;;;;-16.51;100.00;100146.16;5073995;28;20029;-67
2024/01/16 06:25:08;;;;;;;12.73;6.05;;;;;;;-16.52;100.00;100144.47;5073803;28;20056;-67
2024/01/16 06:27:33;;;;;;;18.83;8.80;;;;;;;-16.40;100.00;100154.41;5056357;28;20544;-68
2024/01/16 06:29:59;;;;;;;12.13;5.32;;;;;;;-16.29;100.00;100157.50;5073052;28;20082;-68
2024/01/16 06:32:24;;;;;;;9.85;4.45;;;;;;;-16.30;100.00;100155.81;5089589;28;20028;-67
2024/01/16 06:34:50;;;;;;;10.45;5.20;;;;;;;-16.37;100.00;100151.75;5089724;28;20057;-68
2024/01/16 06:37:15;;;;;;;12.25;5.40;;;;;;;-16.42;100.00;100157.03;5073696;28;20086;-68
2024/01/16 06:39:40;;;;;;;17.85;6.63;;;;;;;-16.38;100.00;100148.34;5073878;28;20517;-68
2024/01/16 06:42:06;;;;;;;19.25;6.40;;;;;;;-16.18;100.00;100152.03;5075148;28;20044;-67
2024/01/16 06:44:31;;;;;;;21.85;9.73;;;;;;;-16.05;100.00;100143.03;5071611;28;20029;-68
2024/01/16 06:46:57;;;;;;;22.75;8.10;;;;;;;-16.06;100.00;100137.91;5072579;28;20029;-68
2024/01/16 06:49:22;;;;;;;22.85;8.30;;;;;;;-16.05;100.00;100145.63;5073306;28;20036;-67
2024/01/16 06:51:47;;;;;;;28.95;9.23;;;;;;;-16.13;100.00;100130.38;5089422;28;20038;-67
2024/01/16 06:54:13;;;;;;;17.98;6.93;;;;;;;-16.01;100.00;100154.09;5072216;28;20131;-68
2024/01/16 06:56:38;;;;;;;16.67;6.20;;;;;;;-16.04;100.00;100154.19;5072467;28;20067;-69
2024/01/16 06:59:03;;;;;;;25.83;9.40;;;;;;;-16.19;100.00;100122.88;5056131;28;20024;-68
2024/01/16 07:01:29;;;;;;;16.33;7.18;;;;;;;-15.93;100.00;100158.09;5055881;28;20059;-68
2024/01/16 07:03:54;;;;;;;10.57;4.10;;;;;;;-15.89;100.00;100153.69;5072660;28;20032;-67
2024/01/16 07:06:20;;;;;;;16.20;5.22;;;;;;;-15.89;100.00;100171.72;5074615;28;20028;-69
2024/01/16 07:08:45;;;;;;;20.42;5.13;;;;;;;-15.92;100.00;100157.22;5055083;28;20037;-68
2024/01/16 07:11:13;;;;;;;20.10;4.70;;;;;;;-15.94;100.00;100158.16;5056006;28;20106;-69
2024/01/16 07:13:39;;;;;;;15.95;6.15;;;;;;;-15.99;100.00;100157.44;5056270;28;20514;-68
2024/01/16 07:16:10;;;;;;;11.20;5.28;;;;;;;-15.99;100.00;100165.19;5072825;28;20032;-68
2024/01/16 07:18:36;;;;;;;14.75;5.90;;;;;;;-16.16;100.00;100135.63;5072771;28;20082;-68
2024/01/16 07:21:02;;;;;;;10.90;4.38;;;;;;;-16.03;100.00;100159.28;5072505;28;20417;-67
2024/01/16 07:23:28;;;;;;;17.75;4.75;;;;;;;-16.05;100.00;100145.63;5088428;28;20036;-67
2024/01/16 07:25:53;;;;;;;23.33;5.25;;;;;;;-16.10;100.00;100142.31;5074169;28;20031;-68
2024/01/16 07:28:19;;;;;;;36.17;9.93;;;;;;;-15.98;100.00;100161.72;5073650;28;20037;-68
2024/01/16 07:30:44;;;;;;;58.85;18.40;;;;;;;-15.94;100.00;100163.31;5073874;28;20024;-70
2024/01/16 07:33:09;;;;;;;58.42;13.98;;;;;;;-16.13;100.00;100114.91;5039350;28;20024;-68
2024/01/16 07:35:35;;;;;;;22.17;6.25;;;;;;;-15.90;100.00;100149.44;5073241;28;20106;-68
2024/01/16 07:38:01;;;;;;;12.00;4.03;;;;;;;-15.81;100.00;100150.88;5055168;28;20028;-68
2024/01/16 07:40:27;;;;;;;10.52;3.42;;;;;;;-15.71;100.00;100154.84;5073373;28;20032;-68
2024/01/16 07:42:52;;;;;;;24.65;4.43;;;;;;;-15.70;100.00;100136.75;5072269;28;20025;-68
2024/01/16 07:45:17;;;;;;;15.18;3.42;;;;;;;-15.50;100.00;100148.09;5071409;28;20402;-67
2024/01/16 07:47:42;;;;;;;17.35;4.50;;;;;;;-15.38;100.00;100149.44;5071501;28;20482;-70
2024/01/16 07:50:08;;;;;;;15.98;4.93;;;;;;;-15.20;100.00;100161.69;5072933;28;20034;-67
2024/01/16 07:52:35;;;;;;;25.17;4.97;;;;;;;-15.14;100.00;100156.31;5071226;28;20116;-67
2024/01/16 07:55:00;;;;;;;10.68;4.15;;;;;;;-15.07;100.00;100159.53;5071712;28;20094;-67
2024/01/16 07:57:25;;;;;;;15.32;2.83;;;;;;;-15.39;100.00;100107.34;5070929;28;20036;-68
2024/01/16 07:59:51;;;;;;;17.33;4.10;;;;;;;-15.06;100.00;100158.63;5087266;28;20108;-68
2024/01/16 08:02:17;;;;;;;12.00;3.97;;;;;;;-15.03;100.00;100161.97;5067844;28;20115;-68
2024/01/16 08:04:44;;;;;;;16.55;3.83;;;;;;;-14.97;100.00;100153.16;5068168;28;20061;-68
2024/01/16 08:07:09;;;;;;;18.05;3.30;;;;;;;-14.90;100.00;100166.69;5052950;28;20028;-68
2024/01/16 08:09:35;;;;;;;12.32;2.72;;;;;;;-14.83;100.00;100166.44;5072682;28;20047;-68
2024/01/16 08:12:02;;;;;;;17.48;4.55;;;;;;;-14.79;100.00;100165.41;5072501;28;20071;-69
2024/01/16 08:14:28;;;;;;;12.13;2.63;;;;;;;-14.72;100.00;100161.72;5072472;28;20134;-67
2024/01/16 08:16:54;;;;;;;8.98;2.30;;;;;;;-14.61;100.00;100163.06;5071027;28;20029;-68
2024/01/16 08:19:19;;;;;;;13.57;2.90;;;;;;;-14.55;100.00;100161.09;5070901;28;20056;-68
2024/01/16 08:21:44;;;;;;;19.50;2.90;;;;;;;-14.49;100.00;100160.00;5072689;28;20036;-68
2024/01/16 08:24:10;;;;;;;13.25;3.40;;;;;;;-14.49;100.00;100155.69;5054740;28;20039;-68
2024/01/16 08:26:35;;;;;;;10.93;3.03;;;;;;;-14.51;100.00;100161.81;5073003;28;20028;-68
2024/01/16 08:29:00;;;;;;;14.77;3.03;;;;;;;-14.48;100.00;100164.25;5054589;28;20119;-67
2024/01/16 08:31:27;;;;;;;38.83;7.68;;;;;;;-14.35;100.00;100167.22;5054116;28;20059;-68
2024/01/16 08:33:55;;;;;;;28.08;8.00;;;;;;;-14.21;100.00;100170.13;5070378;28;20043;-68
2024/01/16 08:36:21;;;;;;;20.98;6.22;;;;;;;-14.11;100.00;100162.88;5070576;28;20107;-68
2024/01/16 08:38:46;;;;;;;21.38;4.18;;;;;;;-14.15;100.00;100144.06;5071865;28;20113;-68
2024/01/16 08:41:11;;;;;;;11.43;3.00;;;;;;;-13.86;100.00;100163.59;5070778;28;20490;-68
2024/01/16 08:43:37;;;;;;;13.45;3.17;;;;;;;-13.71;100.00;100174.22;5054827;28;20530;-69
2024/01/16 08:46:03;;;;;;;12.45;2.92;;;;;;;-13.59;100.00;100163.41;5071395;28;20056;-68
2024/01/16 08:48:29;;;;;;;14.98;2.88;;;;;;;-13.52;100.00;100152.72;5070948;28;20036;-68
2024/01/16 08:50:54;;;;;;;15.32;2.90;;;;;;;-13.33;100.00;100163.16;5053724;28;20119;-68
2024/01/16 08:53:22;;;;;;;14.77;3.95;;;;;;;-13.23;100.00;100162.75;5037630;28;20043;-68
2024/01/16 08:55:47;;;;;;;17.90;5.60;;;;;;;-13.16;100.00;100164.16;5071552;28;20032;-68
2024/01/16 08:58:13;;;;;;;12.38;3.55;;;;;;;-13.09;100.00;100168.19;5071979;28;20055;-68
2024/01/16 09:00:38;;;;;;;16.50;4.07;;;;;;;-13.06;100.00;100157.69;5071078;28;20134;-68
2024/01/16 09:03:05;;;;;;;14.60;3.17;;;;;;;-12.98;100.00;100168.56;5071768;28;20040;-68
2024/01/16 09:05:30;;;;;;;18.13;4.22;;;;;;;-12.96;100.00;100163.31;5069957;28;20028;-68
2024/01/16 09:07:56;;;;;;;7.78;2.95;;;;;;;-12.76;100.00;100171.06;5071359;28;20039;-68
2024/01/16 09:10:21;;;;;;;7.57;2.10;;;;;;;-12.58;100.00;100162.50;5070589;28;20033;-68
2024/01/16 09:12:48;;;;;;;19.15;4.70;;;;;;;-12.41;100.00;100174.69;5072094;28;20112;-68
2024/01/16 09:15:13;;;;;;;20.77;4.20;;;;;;;-12.33;100.00;100175.16;5070289;28;20037;-69
2024/01/16 09:17:39;;;;;;;12.07;2.40;;;;;;;-12.50;100.00;100125.84;5071375;28;20332;-68
2024/01/16 09:20:06;;;;;;;8.85;2.22;;;;;;;-12.57;100.00;100072.63;5072108;28;20029;-68
2024/01/16 09:22:32;;;;;;;16.10;2.22;;;;;;;-12.46;100.00;100064.34;5070889;28;20036;-68
2024/01/16 09:24:57;;;;;;;10.65;1.55;;;;;;;-11.81;100.00;100158.06;5070894;28;20127;-68
2024/01/16 09:27:22;;;;;;;12.50;1.75;;;;;;;-11.66;100.00;100159.91;5070808;28;20060;-68
2024/01/16 09:29:49;;;;;;;7.10;1.83;;;;;;;-11.53;100.00;100167.94;5070507;28;20789;-68
2024/01/16 09:32:14;;;;;;;22.08;2.35;;;;;;;-11.44;100.00;100170.09;5069923;28;20402;-68
2024/01/16 09:34:41;;;;;;;14.00;2.33;;;;;;;-11.34;100.00;100160.09;5070448;28;20048;-68
2024/01/16 09:37:06;;;;;;;9.07;1.77;;;;;;;-11.25;100.00;100159.66;5053217;28;20055;-68
2024/01/16 09:39:34;;;;;;;9.95;2.00;;;;;;;-11.14;100.00;100168.56;5070604;28;20028;-68
2024/01/16 09:42:03;;;;;;;4.60;1.50;;;;;;;-11.07;100.00;100169.09;5070651;28;20031;-68
2024/01/16 09:44:28;;;;;;;5.97;2.17;;;;;;;-10.95;100.00;100171.09;5071741;28;20482;-68
2024/01/16 09:46:56;;;;;;;5.50;1.45;;;;;;;-11.04;100.00;100145.56;5070962;28;20032;-68
2024/01/16 09:49:22;;;;;;;10.48;2.10;;;;;;;-10.74;100.00;100178.69;5069276;28;20028;-68
2024/01/16 09:51:48;;;;;;;5.60;1.75;;;;;;;-10.70;100.00;100183.63;5070782;28;20525;-68
2024/01/16 09:54:13;;;;;;;6.40;1.73;;;;;;;-10.63;100.00;100181.56;5070823;28;20038;-69
2024/01/16 09:56:43;;;;;;;13.30;1.83;;;;;;;-10.60;100.00;100186.59;5072129;28;20065;-69
2024/01/16 09:59:10;;;;;;;4.38;1.80;;;;;;;-10.53;100.00;100185.34;5069743;28;20044;-69
2024/01/16 10:01:37;;;;;;;11.70;1.95;;;;;;;-10.46;100.00;100181.53;5069730;28;20047;-69
2024/01/16 10:04:03;;;;;;;5.88;1.90;;;;;;;-10.36;100.00;100183.63;5069014;28;20032;-69
2024/01/16 10:06:33;;;;;;;4.40;1.60;;;;;;;-10.27;100.00;100190.94;5071655;28;20058;-68
2024/01/16 10:08:59;;;;;;;4.53;1.40;;;;;;;-10.23;100.00;100184.63;5070824;28;20029;-68
2024/01/16 10:11:24;;;;;;;8.88;1.60;;;;;;;-10.22;100.00;100181.13;5069703;28;20052;-68
2024/01/16 10:13:50;;;;;;;5.95;1.65;;;;;;;-10.17;100.00;100181.69;5069809;28;20029;-68
2024/01/16 10:16:15;;;;;;;3.65;1.40;;;;;;;-10.10;100.00;100180.44;5069372;28;20029;-68
2024/01/16 10:18:40;;;;;;;3.38;1.40;;;;;;;-10.04;100.00;100169.69;5054694;28;20037;-68
2024/01/16 10:21:20;;;;;;;4.22;1.50;;;;;;;-9.96;100.00;100158.88;5074641;28;20032;-68
2024/01/16 10:23:46;;;;;;;5.72;1.55;;;;;;;-9.86;100.00;100164.44;5074670;28;20404;-69
2024/01/16 10:26:12;;;;;;;5.32;2.17;;;;;;;-9.79;100.00;100168.38;5073434;28;20036;-68
2024/01/16 10:28:39;;;;;;;3.40;1.80;;;;;;;-9.71;100.00;100171.38;5057533;28;20032;-68
2024/01/16 10:31:07;;;;;;;4.20;1.67;;;;;;;-9.70;100.00;100166.09;5076486;28;20028;-69
2024/01/16 10:33:32;;;;;;;3.88;1.23;;;;;;;-9.83;100.00;100146.00;5075036;28;20624;-69
2024/01/16 10:36:16;;;;;;;2.58;1.40;;;;;;;-9.58;100.00;100164.53;5073536;28;20135;-69
2024/01/16 10:38:43;;;;;;;4.85;1.50;;;;;;;-9.55;100.00;100158.31;5073277;28;20032;-68
2024/01/16 10:41:21;;;;;;;4.65;1.48;;;;;;;-9.56;100.00;100164.47;5056107;28;20044;-68
2024/01/16 10:43:47;;;;;;;3.15;1.40;;;;;;;-9.54;100.00;100166.03;5075031;28;20032;-68
2024/01/16 10:46:17;;;;;;;4.32;1.52;;;;;;;-9.51;100.00;100158.06;5074210;28;20037;-68
2024/01/16 10:48:59;;;;;;;1.73;0.95;;;;;;;-9.74;100.00;100116.88;5074127;28;20028;-68
2024/01/16 10:51:26;;;;;;;2.33;1.25;;;;;;;-9.48;100.00;100155.28;5072740;28;20025;-68
2024/01/16 10:53:58;;;;;;;3.40;1.13;;;;;;;-9.43;100.00;100152.44;5055994;28;20189;-68
2024/01/16 10:56:25;;;;;;;4.20;1.00;;;;;;;-9.35;100.00;100145.00;5072930;28;20026;-69
2024/01/16 10:59:16;;;;;;;3.53;1.10;;;;;;;-9.40;100.00;100127.94;5073847;28;20082;-68
2024/01/16 11:01:45;;;;;;;2.92;1.05;;;;;;;-9.23;100.00;100144.28;5073692;28;20173;-69